Time,TemperatureF,DewpointF,PressureIn,WindDirection,WindDirectionDegrees,WindSpeedMPH,WindSpeedGustMPH,Humidity,HourlyPrecipIn,Conditions,Clouds,dailyrainin,SoftwareType,DateUTC
2013-04-26 00:05:00,80.1,76.0,29.93,ESE,121,7.0,10.0,86,0.00,,,0.00,weatherlink.com 1.10,2013-04-26 04:05:00,
2013-04-26 00:21:00,79.9,75.0,29.92,East,86,7.0,9.0,86,0.00,,,0.00,weatherlink.com 1.10,2013-04-26 04:21:00,
2013-04-26 00:36:00,79.8,76.0,29.91,East,88,9.0,10.0,87,0.00,,,0.00,weatherlink.com 1.10,2013-04-26 04:36:00,
2013-04-26 00:51:00,79.7,76.0,29.91,East,97,8.0,9.0,87,0.00,,,0.00,weatherlink.com 1.10,2013-04-26 04:51:00,
2013-04-26 01:06:00,79.7,76.0,29.90,NNE,27,5.0,9.0,87,0.00,,,0.00,weatherlink.com 1.10,2013-04-26 05:06:00,
2013-04-26 01:21:00,79.8,75.0,29.90,ENE,74,9.0,12.0,86,0.00,,,0.00,weatherlink.com 1.10,2013-04-26 05:21:00,
2013-04-26 01:36:00,79.8,75.0,29.89,ENE,61,2.0,9.0,86,0.00,,,0.00,weatherlink.com 1.10,2013-04-26 05:36:00,
2013-04-26 01:51:00,79.7,75.0,29.89,East,82,3.0,11.0,86,0.00,,,0.00,weatherlink.com 1.10,2013-04-26 05:51:00,
2013-04-26 02:06:00,79.7,76.0,29.89,ENE,78,3.0,9.0,87,0.00,,,0.00,weatherlink.com 1.10,2013-04-26 06:06:00,
2013-04-26 02:21:00,79.6,76.0,29.88,ENE,57,3.0,6.0,87,0.00,,,0.00,weatherlink.com 1.10,2013-04-26 06:21:00,
2013-04-26 02:36:00,79.4,75.0,29.88,ENE,73,4.0,9.0,87,0.00,,,0.00,weatherlink.com 1.10,2013-04-26 06:36:00,
2013-04-26 02:51:00,79.4,76.0,29.87,ENE,59,2.0,8.0,88,0.00,,,0.00,weatherlink.com 1.10,2013-04-26 06:51:00,
2013-04-26 03:06:00,79.3,76.0,29.87,ENE,57,3.0,7.0,89,0.00,,,0.00,weatherlink.com 1.10,2013-04-26 07:06:00,
2013-04-26 03:21:00,79.1,76.0,29.86,NE,49,3.0,7.0,89,0.00,,,0.00,weatherlink.com 1.10,2013-04-26 07:21:00,
2013-04-26 03:36:00,79.0,75.0,29.86,NE,39,1.0,8.0,88,0.00,,,0.00,weatherlink.com 1.10,2013-04-26 07:36:00,
2013-04-26 03:51:00,79.0,75.0,29.86,East,101,5.0,9.0,88,0.00,,,0.00,weatherlink.com 1.10,2013-04-26 07:51:00,
2013-04-26 04:06:00,79.2,75.0,29.86,East,88,2.0,10.0,88,0.00,,,0.00,weatherlink.com 1.10,2013-04-26 08:06:00,
2013-04-26 04:21:00,79.3,75.0,29.86,ENE,62,3.0,8.0,87,0.00,,,0.00,weatherlink.com 1.10,2013-04-26 08:21:00,
2013-04-26 04:36:00,78.1,75.0,29.86,East,81,5.0,9.0,89,0.02,,,0.02,weatherlink.com 1.10,2013-04-26 08:36:00,
2013-04-26 04:51:00,77.1,74.0,29.86,ENE,74,2.0,5.0,91,0.02,,,0.02,weatherlink.com 1.10,2013-04-26 08:51:00,
2013-04-26 05:06:00,77.2,75.0,29.87,East,90,2.0,7.0,92,0.02,,,0.02,weatherlink.com 1.10,2013-04-26 09:06:00,
2013-04-26 05:21:00,77.5,75.0,29.87,East,88,3.0,5.0,93,0.02,,,0.02,weatherlink.com 1.10,2013-04-26 09:21:00,
2013-04-26 05:36:00,77.3,75.0,29.87,ENE,61,3.0,7.0,93,0.00,,,0.02,weatherlink.com 1.10,2013-04-26 09:36:00,
2013-04-26 05:51:00,77.3,75.0,29.87,ENE,70,5.0,7.0,92,0.00,,,0.02,weatherlink.com 1.10,2013-04-26 09:51:00,
2013-04-26 06:06:00,77.6,75.0,29.88,NE,42,2.0,9.0,92,0.00,,,0.02,weatherlink.com 1.10,2013-04-26 10:06:00,
2013-04-26 06:21:00,77.7,75.0,29.88,NE,52,4.0,7.0,91,0.00,,,0.02,weatherlink.com 1.10,2013-04-26 10:21:00,
2013-04-26 06:36:00,78.0,75.0,29.89,East,85,3.0,9.0,90,0.00,,,0.02,weatherlink.com 1.10,2013-04-26 10:36:00,
2013-04-26 06:51:00,77.3,74.0,29.89,ESE,109,2.0,8.0,90,0.00,,,0.02,weatherlink.com 1.10,2013-04-26 10:51:00,
2013-04-26 07:06:00,78.3,76.0,29.89,East,85,3.0,8.0,91,0.00,,,0.02,weatherlink.com 1.10,2013-04-26 11:06:00,
2013-04-26 07:21:00,79.4,76.0,29.90,East,89,5.0,10.0,89,0.00,,,0.02,weatherlink.com 1.10,2013-04-26 11:21:00,
2013-04-26 07:36:00,80.3,76.0,29.90,East,82,7.0,11.0,87,0.00,,,0.02,weatherlink.com 1.10,2013-04-26 11:36:00,
2013-04-26 07:51:00,81.0,75.0,29.91,ENE,75,3.0,13.0,83,0.00,,,0.02,weatherlink.com 1.10,2013-04-26 11:51:00,
2013-04-26 08:06:00,81.7,76.0,29.91,ENE,77,8.0,13.0,83,0.00,,,0.02,weatherlink.com 1.10,2013-04-26 12:06:00,
2013-04-26 08:21:00,82.0,76.0,29.92,East,84,8.0,11.0,83,0.00,,,0.02,weatherlink.com 1.10,2013-04-26 12:21:00,
2013-04-26 08:36:00,82.6,76.0,29.93,NE,46,7.0,13.0,80,0.00,,,0.02,weatherlink.com 1.10,2013-04-26 12:36:00,
2013-04-26 08:51:00,83.3,77.0,29.93,East,84,10.0,13.0,80,0.00,,,0.02,weatherlink.com 1.10,2013-04-26 12:51:00,
2013-04-26 09:06:00,84.1,77.0,29.93,East,93,3.0,11.0,78,0.00,,,0.02,weatherlink.com 1.10,2013-04-26 13:06:00,
2013-04-26 09:22:00,84.4,77.0,29.93,ENE,67,7.0,16.0,77,0.00,,,0.02,weatherlink.com 1.10,2013-04-26 13:22:00,
2013-04-26 09:37:00,84.9,77.0,29.94,NE,55,3.0,14.0,76,0.00,,,0.02,weatherlink.com 1.10,2013-04-26 13:37:00,
2013-04-26 09:52:00,85.5,77.0,29.94,East,83,7.0,14.0,75,0.00,,,0.02,weatherlink.com 1.10,2013-04-26 13:52:00,
2013-04-26 10:07:00,84.8,76.0,29.94,ENE,60,12.0,15.0,74,0.00,,,0.02,weatherlink.com 1.10,2013-04-26 14:07:00,
2013-04-26 10:22:00,85.3,77.0,29.94,ESE,107,9.0,15.0,75,0.00,,,0.02,weatherlink.com 1.10,2013-04-26 14:22:00,
2013-04-26 10:37:00,85.8,77.0,29.94,East,91,10.0,16.0,74,0.00,,,0.02,weatherlink.com 1.10,2013-04-26 14:37:00,
2013-04-26 10:52:00,86.3,77.0,29.93,ENE,59,5.0,13.0,74,0.00,,,0.02,weatherlink.com 1.10,2013-04-26 14:52:00,
2013-04-26 11:07:00,87.0,77.0,29.93,East,80,14.0,15.0,73,0.00,,,0.02,weatherlink.com 1.10,2013-04-26 15:07:00,
2013-04-26 11:22:00,86.1,77.0,29.94,East,88,8.0,14.0,74,0.00,,,0.02,weatherlink.com 1.10,2013-04-26 15:22:00,
2013-04-26 11:37:00,85.8,77.0,29.93,ENE,64,7.0,14.0,76,0.00,,,0.02,weatherlink.com 1.10,2013-04-26 15:37:00,
2013-04-26 11:52:00,86.5,76.0,29.93,East,82,11.0,17.0,71,0.00,,,0.02,weatherlink.com 1.10,2013-04-26 15:52:00,
2013-04-26 12:07:00,86.9,76.0,29.93,East,88,7.0,18.0,71,0.00,,,0.02,weatherlink.com 1.10,2013-04-26 16:07:00,
2013-04-26 12:22:00,86.6,75.0,29.93,East,100,6.0,18.0,69,0.00,,,0.02,weatherlink.com 1.10,2013-04-26 16:22:00,
2013-04-26 12:37:00,87.8,76.0,29.92,NE,48,6.0,14.0,69,0.00,,,0.02,weatherlink.com 1.10,2013-04-26 16:37:00,
2013-04-26 12:52:00,87.6,75.0,29.92,ENE,67,9.0,15.0,67,0.00,,,0.02,weatherlink.com 1.10,2013-04-26 16:52:00,
2013-04-26 13:07:00,87.5,75.0,29.91,East,84,13.0,18.0,66,0.00,,,0.02,weatherlink.com 1.10,2013-04-26 17:07:00,
2013-04-26 13:22:00,87.5,76.0,29.91,ENE,61,11.0,15.0,68,0.00,,,0.02,weatherlink.com 1.10,2013-04-26 17:22:00,
2013-04-26 13:37:00,87.3,76.0,29.90,NE,54,5.0,17.0,68,0.00,,,0.02,weatherlink.com 1.10,2013-04-26 17:37:00,
2013-04-26 13:52:00,86.8,76.0,29.89,SE,124,5.0,12.0,70,0.00,,,0.02,weatherlink.com 1.10,2013-04-26 17:52:00,
2013-04-26 14:07:00,86.2,76.0,29.88,ENE,71,7.0,14.0,71,0.00,,,0.02,weatherlink.com 1.10,2013-04-26 18:07:00,
2013-04-26 14:22:00,86.5,76.0,29.88,ENE,69,3.0,13.0,71,0.00,,,0.02,weatherlink.com 1.10,2013-04-26 18:22:00,
2013-04-26 14:37:00,85.7,76.0,29.88,ENE,62,7.0,12.0,72,0.00,,,0.02,weatherlink.com 1.10,2013-04-26 18:37:00,
2013-04-26 14:52:00,84.2,76.0,29.87,ENE,74,8.0,14.0,76,0.00,,,0.02,weatherlink.com 1.10,2013-04-26 18:52:00,
2013-04-26 15:07:00,84.8,77.0,29.86,North,5,8.0,13.0,76,0.00,,,0.02,weatherlink.com 1.10,2013-04-26 19:07:00,
2013-04-26 15:22:00,85.1,76.0,29.86,East,90,5.0,15.0,74,0.00,,,0.02,weatherlink.com 1.10,2013-04-26 19:22:00,
2013-04-26 15:37:00,84.8,76.0,29.86,NNE,24,4.0,12.0,75,0.00,,,0.02,weatherlink.com 1.10,2013-04-26 19:37:00,
2013-04-26 15:52:00,85.5,76.0,29.86,ESE,107,7.0,15.0,74,0.00,,,0.02,weatherlink.com 1.10,2013-04-26 19:52:00,
2013-04-26 16:07:00,85.3,77.0,29.85,East,94,11.0,14.0,75,0.00,,,0.02,weatherlink.com 1.10,2013-04-26 20:07:00,
2013-04-26 16:22:00,83.3,75.0,29.85,East,92,5.0,16.0,76,0.00,,,0.02,weatherlink.com 1.10,2013-04-26 20:22:00,
2013-04-26 16:37:00,84.0,76.0,29.85,ENE,75,7.0,13.0,76,0.00,,,0.02,weatherlink.com 1.10,2013-04-26 20:37:00,
2013-04-26 16:52:00,84.3,75.0,29.84,ENE,71,8.0,11.0,74,0.00,,,0.02,weatherlink.com 1.10,2013-04-26 20:52:00,
2013-04-26 17:07:00,84.2,76.0,29.84,ENE,66,7.0,14.0,75,0.00,,,0.02,weatherlink.com 1.10,2013-04-26 21:07:00,
2013-04-26 17:22:00,83.9,76.0,29.85,ENE,57,4.0,13.0,76,0.00,,,0.02,weatherlink.com 1.10,2013-04-26 21:22:00,
2013-04-26 17:37:00,83.7,76.0,29.85,ENE,61,5.0,11.0,78,0.00,,,0.02,weatherlink.com 1.10,2013-04-26 21:37:00,
2013-04-26 17:52:00,82.8,75.0,29.86,ENE,57,3.0,11.0,78,0.00,,,0.02,weatherlink.com 1.10,2013-04-26 21:52:00,
2013-04-26 18:07:00,82.7,76.0,29.86,NE,46,3.0,13.0,79,0.00,,,0.02,weatherlink.com 1.10,2013-04-26 22:07:00,
2013-04-26 18:22:00,82.5,75.0,29.86,NE,49,2.0,13.0,79,0.00,,,0.02,weatherlink.com 1.10,2013-04-26 22:22:00,
2013-04-26 18:37:00,82.0,75.0,29.86,ENE,69,10.0,12.0,80,0.00,,,0.02,weatherlink.com 1.10,2013-04-26 22:37:00,
2013-04-26 18:52:00,81.7,75.0,29.86,ENE,59,5.0,13.0,80,0.00,,,0.02,weatherlink.com 1.10,2013-04-26 22:52:00,
2013-04-26 19:07:00,81.4,75.0,29.87,NNE,31,4.0,11.0,80,0.00,,,0.02,weatherlink.com 1.10,2013-04-26 23:07:00,
2013-04-26 19:22:00,81.2,75.0,29.87,NE,54,5.0,12.0,80,0.00,,,0.02,weatherlink.com 1.10,2013-04-26 23:22:00,
2013-04-26 19:37:00,81.2,75.0,29.87,NE,44,4.0,10.0,80,0.00,,,0.02,weatherlink.com 1.10,2013-04-26 23:37:00,
2013-04-26 19:52:00,81.1,75.0,29.88,NE,51,5.0,10.0,81,0.00,,,0.02,weatherlink.com 1.10,2013-04-26 23:52:00,
2013-04-26 20:07:00,81.1,76.0,29.89,NE,44,4.0,14.0,83,0.00,,,0.02,weatherlink.com 1.10,2013-04-27 00:07:00,
2013-04-26 20:22:00,81.1,76.0,29.89,East,84,1.0,10.0,83,0.00,,,0.02,weatherlink.com 1.10,2013-04-27 00:22:00,
2013-04-26 20:37:00,81.0,75.0,29.90,NE,46,5.0,11.0,83,0.00,,,0.02,weatherlink.com 1.10,2013-04-27 00:37:00,
2013-04-26 20:52:00,80.9,75.0,29.90,NE,47,3.0,11.0,82,0.00,,,0.02,weatherlink.com 1.10,2013-04-27 00:52:00,
2013-04-26 21:07:00,80.9,75.0,29.91,ENE,73,2.0,8.0,83,0.00,,,0.02,weatherlink.com 1.10,2013-04-27 01:07:00,
2013-04-26 21:22:00,80.9,75.0,29.91,NNE,22,7.0,12.0,82,0.00,,,0.02,weatherlink.com 1.10,2013-04-27 01:22:00,
2013-04-26 21:37:00,80.8,75.0,29.92,East,86,5.0,10.0,82,0.00,,,0.02,weatherlink.com 1.10,2013-04-27 01:37:00,
2013-04-26 21:52:00,80.6,75.0,29.92,ENE,63,3.0,11.0,82,0.00,,,0.02,weatherlink.com 1.10,2013-04-27 01:52:00,
2013-04-26 22:07:00,80.5,75.0,29.93,ENE,69,4.0,9.0,83,0.00,,,0.02,weatherlink.com 1.10,2013-04-27 02:07:00,
2013-04-26 22:22:00,80.5,75.0,29.93,ENE,62,4.0,9.0,83,0.00,,,0.02,weatherlink.com 1.10,2013-04-27 02:22:00,
2013-04-26 22:37:00,80.4,75.0,29.93,ENE,61,2.0,9.0,83,0.00,,,0.02,weatherlink.com 1.10,2013-04-27 02:37:00,
2013-04-26 22:52:00,80.5,75.0,29.94,NNE,22,3.0,11.0,83,0.00,,,0.02,weatherlink.com 1.10,2013-04-27 02:52:00,
2013-04-26 23:07:00,80.6,75.0,29.94,ENE,63,7.0,11.0,83,0.00,,,0.02,weatherlink.com 1.10,2013-04-27 03:07:00,
2013-04-26 23:22:00,80.6,75.0,29.93,ENE,62,11.0,11.0,84,0.00,,,0.02,weatherlink.com 1.10,2013-04-27 03:22:00,
2013-04-26 23:37:00,80.5,75.0,29.93,NE,44,6.0,10.0,82,0.00,,,0.02,weatherlink.com 1.10,2013-04-27 03:37:00,
2013-04-26 23:52:00,80.3,75.0,29.93,North,5,4.0,10.0,83,0.00,,,0.02,weatherlink.com 1.10,2013-04-27 03:52:00,